sensor_id;sensor_type;location;lat;lon;timestamp;P1;durP1;ratioP1;P2;durP2;ratioP2
56102;SDS011;41970;48.774;9.280;2022-07-22T00:18:54;6.33;;;5.83;;
56102;SDS011;41970;48.774;9.280;2022-07-22T00:21:44;6.90;;;6.30;;
56102;SDS011;41970;48.774;9.280;2022-07-22T00:24:10;7.90;;;7.30;;
56102;SDS011;41970;48.774;9.280;2022-07-22T00:26:40;7.77;;;7.07;;
56102;SDS011;41970;48.774;9.280;2022-07-22T00:29:29;7.03;;;6.33;;
56102;SDS011;41970;48.774;9.280;2022-07-22T00:32:00;8.93;;;6.50;;
56102;SDS011;41970;48.774;9.280;2022-07-22T00:34:34;6.90;;;6.30;;
56102;SDS011;41970;48.774;9.280;2022-07-22T00:37:02;8.17;;;7.37;;
56102;SDS011;41970;48.774;9.280;2022-07-22T00:39:36;7.13;;;6.13;;
56102;SDS011;41970;48.774;9.280;2022-07-22T00:44:40;8.07;;;7.47;;
56102;SDS011;41970;48.774;9.280;2022-07-22T00:47:06;7.63;;;6.90;;
56102;SDS011;41970;48.774;9.280;2022-07-22T00:49:32;7.43;;;6.83;;
56102;SDS011;41970;48.774;9.280;2022-07-22T00:51:58;7.43;;;6.83;;
56102;SDS011;41970;48.774;9.280;2022-07-22T00:54:24;8.20;;;7.50;;
56102;SDS011;41970;48.774;9.280;2022-07-22T00:56:50;7.93;;;6.57;;
56102;SDS011;41970;48.774;9.280;2022-07-22T00:59:16;7.40;;;5.60;;
56102;SDS011;41970;48.774;9.280;2022-07-22T01:01:42;7.27;;;6.63;;
56102;SDS011;41970;48.774;9.280;2022-07-22T01:04:08;7.77;;;7.07;;
56102;SDS011;41970;48.774;9.280;2022-07-22T01:06:34;7.17;;;6.47;;
56102;SDS011;41970;48.774;9.280;2022-07-22T01:09:00;7.17;;;6.57;;
56102;SDS011;41970;48.774;9.280;2022-07-22T01:11:26;7.50;;;6.80;;
56102;SDS011;41970;48.774;9.280;2022-07-22T01:13:53;7.30;;;6.70;;
56102;SDS011;41970;48.774;9.280;2022-07-22T01:16:21;8.53;;;6.60;;
56102;SDS011;41970;48.774;9.280;2022-07-22T01:18:47;7.03;;;6.47;;
56102;SDS011;41970;48.774;9.280;2022-07-22T01:21:13;7.70;;;7.00;;
56102;SDS011;41970;48.774;9.280;2022-07-22T01:23:40;7.27;;;6.40;;
56102;SDS011;41970;48.774;9.280;2022-07-22T01:26:06;8.37;;;7.40;;
56102;SDS011;41970;48.774;9.280;2022-07-22T01:28:33;6.57;;;5.97;;
56102;SDS011;41970;48.774;9.280;2022-07-22T01:30:59;6.90;;;6.27;;
56102;SDS011;41970;48.774;9.280;2022-07-22T01:33:25;7.40;;;6.20;;
56102;SDS011;41970;48.774;9.280;2022-07-22T01:35:51;6.93;;;6.33;;
56102;SDS011;41970;48.774;9.280;2022-07-22T01:38:18;7.20;;;6.50;;
56102;SDS011;41970;48.774;9.280;2022-07-22T01:40:44;9.10;;;7.13;;
56102;SDS011;41970;48.774;9.280;2022-07-22T01:43:11;8.20;;;7.50;;
56102;SDS011;41970;48.774;9.280;2022-07-22T01:45:41;7.63;;;6.93;;
56102;SDS011;41970;48.774;9.280;2022-07-22T01:48:07;8.10;;;7.43;;
56102;SDS011;41970;48.774;9.280;2022-07-22T01:50:32;7.87;;;7.20;;
56102;SDS011;41970;48.774;9.280;2022-07-22T01:52:58;7.40;;;6.70;;
56102;SDS011;41970;48.774;9.280;2022-07-22T01:55:24;7.93;;;7.27;;
56102;SDS011;41970;48.774;9.280;2022-07-22T01:57:50;8.63;;;6.93;;
56102;SDS011;41970;48.774;9.280;2022-07-22T02:00:16;8.40;;;7.50;;
56102;SDS011;41970;48.774;9.280;2022-07-22T02:02:42;8.33;;;7.53;;
56102;SDS011;41970;48.774;9.280;2022-07-22T02:05:08;7.23;;;6.63;;
56102;SDS011;41970;48.774;9.280;2022-07-22T02:07:34;8.70;;;7.90;;
56102;SDS011;41970;48.774;9.280;2022-07-22T02:10:00;8.50;;;7.70;;
56102;SDS011;41970;48.774;9.280;2022-07-22T02:12:26;8.93;;;8.13;;
56102;SDS011;41970;48.774;9.280;2022-07-22T02:14:52;7.70;;;6.80;;
56102;SDS011;41970;48.774;9.280;2022-07-22T02:17:18;7.43;;;6.73;;
56102;SDS011;41970;48.774;9.280;2022-07-22T02:19:44;7.30;;;6.77;;
56102;SDS011;41970;48.774;9.280;2022-07-22T02:22:09;7.87;;;7.07;;
56102;SDS011;41970;48.774;9.280;2022-07-22T02:24:35;8.23;;;7.47;;
56102;SDS011;41970;48.774;9.280;2022-07-22T02:27:01;8.20;;;7.60;;
56102;SDS011;41970;48.774;9.280;2022-07-22T02:29:28;7.50;;;6.90;;
56102;SDS011;41970;48.774;9.280;2022-07-22T02:31:55;8.60;;;7.50;;
56102;SDS011;41970;48.774;9.280;2022-07-22T02:34:21;7.70;;;7.10;;
56102;SDS011;41970;48.774;9.280;2022-07-22T02:36:46;8.47;;;7.70;;
56102;SDS011;41970;48.774;9.280;2022-07-22T02:39:12;8.10;;;7.50;;
56102;SDS011;41970;48.774;9.280;2022-07-22T02:41:38;8.60;;;7.67;;
56102;SDS011;41970;48.774;9.280;2022-07-22T02:44:04;8.53;;;7.70;;
56102;SDS011;41970;48.774;9.280;2022-07-22T02:46:30;8.13;;;7.43;;
56102;SDS011;41970;48.774;9.280;2022-07-22T02:48:56;9.37;;;8.47;;
56102;SDS011;41970;48.774;9.280;2022-07-22T02:51:22;8.50;;;7.70;;
56102;SDS011;41970;48.774;9.280;2022-07-22T02:53:48;8.43;;;7.57;;
56102;SDS011;41970;48.774;9.280;2022-07-22T02:56:14;8.83;;;8.00;;
56102;SDS011;41970;48.774;9.280;2022-07-22T02:58:41;9.13;;;8.10;;
56102;SDS011;41970;48.774;9.280;2022-07-22T03:01:07;8.90;;;8.13;;
56102;SDS011;41970;48.774;9.280;2022-07-22T03:03:33;8.33;;;7.53;;
56102;SDS011;41970;48.774;9.280;2022-07-22T03:05:59;9.27;;;7.60;;
56102;SDS011;41970;48.774;9.280;2022-07-22T03:08:25;7.87;;;7.20;;
56102;SDS011;41970;48.774;9.280;2022-07-22T03:10:51;9.50;;;8.43;;
56102;SDS011;41970;48.774;9.280;2022-07-22T03:13:18;9.90;;;9.00;;
56102;SDS011;41970;48.774;9.280;2022-07-22T03:15:44;8.43;;;7.73;;
56102;SDS011;41970;48.774;9.280;2022-07-22T03:18:09;10.37;;;9.37;;
56102;SDS011;41970;48.774;9.280;2022-07-22T03:20:35;10.00;;;9.00;;
56102;SDS011;41970;48.774;9.280;2022-07-22T03:23:01;9.23;;;8.53;;
56102;SDS011;41970;48.774;9.280;2022-07-22T03:25:27;9.33;;;8.33;;
56102;SDS011;41970;48.774;9.280;2022-07-22T03:27:55;10.37;;;9.47;;
56102;SDS011;41970;48.774;9.280;2022-07-22T03:30:22;9.57;;;8.67;;
56102;SDS011;41970;48.774;9.280;2022-07-22T03:32:48;9.27;;;8.37;;
56102;SDS011;41970;48.774;9.280;2022-07-22T03:35:14;9.57;;;8.77;;
56102;SDS011;41970;48.774;9.280;2022-07-22T03:37:41;10.87;;;9.87;;
56102;SDS011;41970;48.774;9.280;2022-07-22T03:40:07;9.67;;;8.67;;
56102;SDS011;41970;48.774;9.280;2022-07-22T03:42:33;9.80;;;8.90;;
56102;SDS011;41970;48.774;9.280;2022-07-22T03:44:59;11.30;;;9.97;;
56102;SDS011;41970;48.774;9.280;2022-07-22T03:47:25;11.30;;;9.60;;
56102;SDS011;41970;48.774;9.280;2022-07-22T03:49:51;9.67;;;8.87;;
56102;SDS011;41970;48.774;9.280;2022-07-22T03:52:17;10.33;;;9.33;;
56102;SDS011;41970;48.774;9.280;2022-07-22T03:54:43;13.43;;;10.30;;
56102;SDS011;41970;48.774;9.280;2022-07-22T03:57:09;11.20;;;10.10;;
56102;SDS011;41970;48.774;9.280;2022-07-22T03:59:35;10.33;;;9.47;;
56102;SDS011;41970;48.774;9.280;2022-07-22T04:02:02;12.13;;;10.93;;
56102;SDS011;41970;48.774;9.280;2022-07-22T04:04:28;11.30;;;10.20;;
56102;SDS011;41970;48.774;9.280;2022-07-22T04:06:54;11.60;;;10.20;;
56102;SDS011;41970;48.774;9.280;2022-07-22T04:09:20;12.10;;;10.90;;
56102;SDS011;41970;48.774;9.280;2022-07-22T04:11:47;11.30;;;10.30;;
56102;SDS011;41970;48.774;9.280;2022-07-22T04:14:12;10.23;;;9.33;;
56102;SDS011;41970;48.774;9.280;2022-07-22T04:16:38;11.73;;;10.63;;
56102;SDS011;41970;48.774;9.280;2022-07-22T04:19:04;10.90;;;9.90;;
56102;SDS011;41970;48.774;9.280;2022-07-22T04:21:30;12.20;;;10.30;;
56102;SDS011;41970;48.774;9.280;2022-07-22T04:23:56;10.40;;;9.60;;
56102;SDS011;41970;48.774;9.280;2022-07-22T04:26:22;10.00;;;9.03;;
56102;SDS011;41970;48.774;9.280;2022-07-22T04:28:48;11.50;;;10.40;;
56102;SDS011;41970;48.774;9.280;2022-07-22T04:31:14;10.63;;;9.73;;
56102;SDS011;41970;48.774;9.280;2022-07-22T04:33:40;11.63;;;10.47;;
56102;SDS011;41970;48.774;9.280;2022-07-22T04:36:06;12.20;;;10.47;;
56102;SDS011;41970;48.774;9.280;2022-07-22T04:38:32;10.47;;;9.57;;
56102;SDS011;41970;48.774;9.280;2022-07-22T04:40:58;9.60;;;8.70;;
56102;SDS011;41970;48.774;9.280;2022-07-22T04:43:24;11.03;;;10.00;;
56102;SDS011;41970;48.774;9.280;2022-07-22T04:45:50;11.77;;;10.77;;
56102;SDS011;41970;48.774;9.280;2022-07-22T04:48:16;10.73;;;9.80;;
56102;SDS011;41970;48.774;9.280;2022-07-22T04:50:43;10.70;;;9.80;;
56102;SDS011;41970;48.774;9.280;2022-07-22T04:53:09;10.50;;;9.60;;
56102;SDS011;41970;48.774;9.280;2022-07-22T04:55:35;10.70;;;9.70;;
56102;SDS011;41970;48.774;9.280;2022-07-22T04:58:01;11.40;;;10.40;;
56102;SDS011;41970;48.774;9.280;2022-07-22T05:00:27;9.93;;;8.87;;
56102;SDS011;41970;48.774;9.280;2022-07-22T05:02:53;11.30;;;10.20;;
56102;SDS011;41970;48.774;9.280;2022-07-22T05:05:19;12.20;;;10.20;;
56102;SDS011;41970;48.774;9.280;2022-07-22T05:07:44;10.30;;;9.33;;
56102;SDS011;41970;48.774;9.280;2022-07-22T05:10:10;9.80;;;9.00;;
56102;SDS011;41970;48.774;9.280;2022-07-22T05:12:36;11.90;;;10.77;;
56102;SDS011;41970;48.774;9.280;2022-07-22T05:15:02;12.20;;;10.67;;
56102;SDS011;41970;48.774;9.280;2022-07-22T05:17:28;9.70;;;8.90;;
56102;SDS011;41970;48.774;9.280;2022-07-22T05:19:54;12.30;;;11.20;;
56102;SDS011;41970;48.774;9.280;2022-07-22T05:22:20;10.73;;;9.87;;
56102;SDS011;41970;48.774;9.280;2022-07-22T05:24:46;10.17;;;9.27;;
56102;SDS011;41970;48.774;9.280;2022-07-22T05:27:12;17.50;;;11.97;;
56102;SDS011;41970;48.774;9.280;2022-07-22T05:29:38;12.80;;;11.80;;
56102;SDS011;41970;48.774;9.280;2022-07-22T05:32:03;12.33;;;11.20;;
56102;SDS011;41970;48.774;9.280;2022-07-22T05:34:30;13.37;;;11.60;;
56102;SDS011;41970;48.774;9.280;2022-07-22T05:36:56;14.37;;;12.97;;
56102;SDS011;41970;48.774;9.280;2022-07-22T05:39:22;12.27;;;11.07;;
56102;SDS011;41970;48.774;9.280;2022-07-22T05:41:48;13.73;;;12.43;;
56102;SDS011;41970;48.774;9.280;2022-07-22T05:44:14;11.30;;;10.30;;
56102;SDS011;41970;48.774;9.280;2022-07-22T05:46:40;11.20;;;10.30;;
56102;SDS011;41970;48.774;9.280;2022-07-22T05:49:06;14.67;;;12.30;;
56102;SDS011;41970;48.774;9.280;2022-07-22T05:51:32;13.80;;;12.50;;
56102;SDS011;41970;48.774;9.280;2022-07-22T05:53:59;14.60;;;13.07;;
56102;SDS011;41970;48.774;9.280;2022-07-22T05:56:27;13.60;;;12.20;;
56102;SDS011;41970;48.774;9.280;2022-07-22T05:58:53;12.30;;;11.13;;
56102;SDS011;41970;48.774;9.280;2022-07-22T06:01:21;13.93;;;12.73;;
56102;SDS011;41970;48.774;9.280;2022-07-22T06:03:47;13.57;;;12.23;;
56102;SDS011;41970;48.774;9.280;2022-07-22T06:06:13;12.33;;;11.13;;
56102;SDS011;41970;48.774;9.280;2022-07-22T06:08:39;13.50;;;12.30;;
56102;SDS011;41970;48.774;9.280;2022-07-22T06:11:05;13.40;;;12.20;;
56102;SDS011;41970;48.774;9.280;2022-07-22T06:13:31;13.30;;;12.00;;
56102;SDS011;41970;48.774;9.280;2022-07-22T06:15:57;13.43;;;12.33;;
56102;SDS011;41970;48.774;9.280;2022-07-22T06:18:24;11.80;;;10.80;;
56102;SDS011;41970;48.774;9.280;2022-07-22T06:20:49;13.27;;;12.07;;
56102;SDS011;41970;48.774;9.280;2022-07-22T06:23:15;14.00;;;12.70;;
56102;SDS011;41970;48.774;9.280;2022-07-22T06:25:41;13.40;;;12.07;;
56102;SDS011;41970;48.774;9.280;2022-07-22T06:28:08;14.90;;;13.50;;
56102;SDS011;41970;48.774;9.280;2022-07-22T06:30:34;13.40;;;12.20;;
56102;SDS011;41970;48.774;9.280;2022-07-22T06:33:00;14.53;;;13.20;;
56102;SDS011;41970;48.774;9.280;2022-07-22T06:35:25;16.57;;;12.03;;
56102;SDS011;41970;48.774;9.280;2022-07-22T06:37:52;13.50;;;12.27;;
56102;SDS011;41970;48.774;9.280;2022-07-22T06:40:18;13.77;;;12.57;;
56102;SDS011;41970;48.774;9.280;2022-07-22T06:42:44;12.23;;;11.10;;
56102;SDS011;41970;48.774;9.280;2022-07-22T06:45:10;13.13;;;11.93;;
56102;SDS011;41970;48.774;9.280;2022-07-22T06:47:36;13.63;;;12.40;;
56102;SDS011;41970;48.774;9.280;2022-07-22T06:50:03;13.60;;;12.60;;
56102;SDS011;41970;48.774;9.280;2022-07-22T06:52:29;12.20;;;9.30;;
56102;SDS011;41970;48.774;9.280;2022-07-22T06:54:55;12.50;;;11.40;;
56102;SDS011;41970;48.774;9.280;2022-07-22T06:57:21;17.57;;;10.87;;
56102;SDS011;41970;48.774;9.280;2022-07-22T06:59:47;11.83;;;10.93;;
56102;SDS011;41970;48.774;9.280;2022-07-22T07:02:13;11.50;;;10.47;;
56102;SDS011;41970;48.774;9.280;2022-07-22T07:04:39;13.73;;;12.43;;
56102;SDS011;41970;48.774;9.280;2022-07-22T07:07:05;11.17;;;10.17;;
56102;SDS011;41970;48.774;9.280;2022-07-22T07:09:30;10.47;;;9.47;;
56102;SDS011;41970;48.774;9.280;2022-07-22T07:11:56;10.60;;;9.57;;
56102;SDS011;41970;48.774;9.280;2022-07-22T07:14:22;12.00;;;10.90;;
56102;SDS011;41970;48.774;9.280;2022-07-22T07:16:48;11.67;;;10.67;;
56102;SDS011;41970;48.774;9.280;2022-07-22T07:19:14;10.83;;;9.87;;
56102;SDS011;41970;48.774;9.280;2022-07-22T07:21:40;12.57;;;10.57;;
56102;SDS011;41970;48.774;9.280;2022-07-22T07:24:05;11.53;;;10.47;;
56102;SDS011;41970;48.774;9.280;2022-07-22T07:26:31;11.40;;;10.40;;
56102;SDS011;41970;48.774;9.280;2022-07-22T07:28:57;11.17;;;10.07;;
56102;SDS011;41970;48.774;9.280;2022-07-22T07:31:23;11.63;;;10.73;;
56102;SDS011;41970;48.774;9.280;2022-07-22T07:33:49;11.90;;;10.70;;
56102;SDS011;41970;48.774;9.280;2022-07-22T07:36:15;11.50;;;10.43;;
56102;SDS011;41970;48.774;9.280;2022-07-22T07:38:41;11.80;;;10.70;;
56102;SDS011;41970;48.774;9.280;2022-07-22T07:41:07;12.20;;;11.20;;
56102;SDS011;41970;48.774;9.280;2022-07-22T07:43:33;9.63;;;8.70;;
56102;SDS011;41970;48.774;9.280;2022-07-22T07:45:59;10.23;;;9.27;;
56102;SDS011;41970;48.774;9.280;2022-07-22T07:48:25;10.97;;;10.17;;
56102;SDS011;41970;48.774;9.280;2022-07-22T07:50:51;12.83;;;10.07;;
56102;SDS011;41970;48.774;9.280;2022-07-22T07:53:17;10.60;;;9.57;;
56102;SDS011;41970;48.774;9.280;2022-07-22T07:55:44;9.10;;;8.20;;
56102;SDS011;41970;48.774;9.280;2022-07-22T07:58:09;9.63;;;8.57;;
56102;SDS011;41970;48.774;9.280;2022-07-22T08:00:36;9.87;;;9.17;;
56102;SDS011;41970;48.774;9.280;2022-07-22T08:03:03;11.53;;;10.50;;
56102;SDS011;41970;48.774;9.280;2022-07-22T08:05:29;10.77;;;9.73;;
56102;SDS011;41970;48.774;9.280;2022-07-22T08:07:55;9.07;;;8.30;;
56102;SDS011;41970;48.774;9.280;2022-07-22T08:10:21;9.57;;;8.80;;
56102;SDS011;41970;48.774;9.280;2022-07-22T08:12:48;9.30;;;8.50;;
56102;SDS011;41970;48.774;9.280;2022-07-22T08:15:14;10.13;;;9.33;;
56102;SDS011;41970;48.774;9.280;2022-07-22T08:17:40;9.93;;;9.07;;
56102;SDS011;41970;48.774;9.280;2022-07-22T08:20:06;10.47;;;9.60;;
56102;SDS011;41970;48.774;9.280;2022-07-22T08:22:33;9.33;;;8.40;;
56102;SDS011;41970;48.774;9.280;2022-07-22T08:24:59;9.50;;;8.73;;
56102;SDS011;41970;48.774;9.280;2022-07-22T08:27:25;9.93;;;9.10;;
56102;SDS011;41970;48.774;9.280;2022-07-22T08:29:51;8.53;;;7.83;;
56102;SDS011;41970;48.774;9.280;2022-07-22T08:32:17;9.37;;;8.60;;
56102;SDS011;41970;48.774;9.280;2022-07-22T08:34:43;10.67;;;9.87;;
56102;SDS011;41970;48.774;9.280;2022-07-22T08:37:09;10.77;;;8.33;;
56102;SDS011;41970;48.774;9.280;2022-07-22T08:39:35;9.80;;;9.00;;
56102;SDS011;41970;48.774;9.280;2022-07-22T08:42:02;9.47;;;8.30;;
56102;SDS011;41970;48.774;9.280;2022-07-22T08:44:32;10.20;;;9.40;;
56102;SDS011;41970;48.774;9.280;2022-07-22T08:46:59;10.83;;;9.90;;
56102;SDS011;41970;48.774;9.280;2022-07-22T08:49:25;10.33;;;9.43;;
56102;SDS011;41970;48.774;9.280;2022-07-22T08:51:51;10.23;;;9.33;;
56102;SDS011;41970;48.774;9.280;2022-07-22T08:54:17;10.13;;;9.23;;
56102;SDS011;41970;48.774;9.280;2022-07-22T08:56:47;10.73;;;9.73;;
56102;SDS011;41970;48.774;9.280;2022-07-22T08:59:15;10.63;;;8.00;;
56102;SDS011;41970;48.774;9.280;2022-07-22T09:04:28;9.40;;;8.60;;
56102;SDS011;41970;48.774;9.280;2022-07-22T09:06:56;12.20;;;9.10;;
56102;SDS011;41970;48.774;9.280;2022-07-22T09:09:32;9.63;;;8.73;;
56102;SDS011;41970;48.774;9.280;2022-07-22T09:12:05;8.57;;;7.87;;
56102;SDS011;41970;48.774;9.280;2022-07-22T09:14:44;8.37;;;7.77;;
56102;SDS011;41970;48.774;9.280;2022-07-22T09:19:56;9.57;;;8.77;;
56102;SDS011;41970;48.774;9.280;2022-07-22T09:25:20;8.90;;;8.10;;
56102;SDS011;41970;48.774;9.280;2022-07-22T09:28:15;8.90;;;8.10;;
56102;SDS011;41970;48.774;9.280;2022-07-22T09:30:49;8.50;;;7.67;;
56102;SDS011;41970;48.774;9.280;2022-07-22T09:33:16;7.30;;;6.67;;
56102;SDS011;41970;48.774;9.280;2022-07-22T09:35:43;7.87;;;7.27;;
56102;SDS011;41970;48.774;9.280;2022-07-22T09:38:10;7.90;;;7.30;;
56102;SDS011;41970;48.774;9.280;2022-07-22T09:40:38;9.13;;;8.43;;
56102;SDS011;41970;48.774;9.280;2022-07-22T09:43:09;8.57;;;7.90;;
56102;SDS011;41970;48.774;9.280;2022-07-22T09:45:44;8.20;;;7.50;;
56102;SDS011;41970;48.774;9.280;2022-07-22T09:48:12;8.30;;;7.60;;
56102;SDS011;41970;48.774;9.280;2022-07-22T09:50:39;9.03;;;8.20;;
56102;SDS011;41970;48.774;9.280;2022-07-22T09:53:05;8.17;;;7.47;;
56102;SDS011;41970;48.774;9.280;2022-07-22T09:55:31;8.73;;;8.13;;
56102;SDS011;41970;48.774;9.280;2022-07-22T09:57:58;8.70;;;8.00;;
56102;SDS011;41970;48.774;9.280;2022-07-22T10:00:25;8.57;;;7.87;;
56102;SDS011;41970;48.774;9.280;2022-07-22T10:02:56;8.60;;;7.77;;
56102;SDS011;41970;48.774;9.280;2022-07-22T10:05:24;8.37;;;7.57;;
56102;SDS011;41970;48.774;9.280;2022-07-22T10:07:52;7.00;;;6.50;;
56102;SDS011;41970;48.774;9.280;2022-07-22T10:10:19;8.10;;;7.50;;
56102;SDS011;41970;48.774;9.280;2022-07-22T10:12:48;8.27;;;7.67;;
56102;SDS011;41970;48.774;9.280;2022-07-22T10:15:15;8.20;;;7.50;;
56102;SDS011;41970;48.774;9.280;2022-07-22T10:17:42;7.50;;;6.90;;
56102;SDS011;41970;48.774;9.280;2022-07-22T10:20:11;8.20;;;7.50;;
56102;SDS011;41970;48.774;9.280;2022-07-22T10:25:11;7.20;;;6.63;;
56102;SDS011;41970;48.774;9.280;2022-07-22T10:27:48;8.67;;;7.40;;
56102;SDS011;41970;48.774;9.280;2022-07-22T10:30:18;8.27;;;7.47;;
56102;SDS011;41970;48.774;9.280;2022-07-22T10:33:00;8.50;;;7.90;;
56102;SDS011;41970;48.774;9.280;2022-07-22T10:35:32;8.27;;;7.67;;
56102;SDS011;41970;48.774;9.280;2022-07-22T10:38:00;7.00;;;6.50;;
56102;SDS011;41970;48.774;9.280;2022-07-22T10:40:29;8.30;;;7.70;;
56102;SDS011;41970;48.774;9.280;2022-07-22T10:43:17;8.47;;;7.87;;
56102;SDS011;41970;48.774;9.280;2022-07-22T10:50:42;7.63;;;7.03;;
56102;SDS011;41970;48.774;9.280;2022-07-22T10:53:13;7.60;;;7.10;;
56102;SDS011;41970;48.774;9.280;2022-07-22T10:55:59;9.77;;;8.03;;
56102;SDS011;41970;48.774;9.280;2022-07-22T11:00:58;7.10;;;6.60;;
56102;SDS011;41970;48.774;9.280;2022-07-22T11:03:26;10.83;;;8.10;;
56102;SDS011;41970;48.774;9.280;2022-07-22T11:05:54;6.50;;;5.90;;
56102;SDS011;41970;48.774;9.280;2022-07-22T11:08:21;8.13;;;7.47;;
56102;SDS011;41970;48.774;9.280;2022-07-22T11:10:48;8.93;;;8.13;;
56102;SDS011;41970;48.774;9.280;2022-07-22T11:18:55;8.13;;;7.43;;
56102;SDS011;41970;48.774;9.280;2022-07-22T11:21:28;7.67;;;7.17;;
56102;SDS011;41970;48.774;9.280;2022-07-22T11:23:56;7.83;;;7.23;;
56102;SDS011;41970;48.774;9.280;2022-07-22T11:29:10;7.67;;;6.87;;
56102;SDS011;41970;48.774;9.280;2022-07-22T11:31:42;7.17;;;6.67;;
56102;SDS011;41970;48.774;9.280;2022-07-22T11:34:10;6.90;;;6.40;;
56102;SDS011;41970;48.774;9.280;2022-07-22T11:36:38;8.37;;;7.77;;
56102;SDS011;41970;48.774;9.280;2022-07-22T11:39:06;7.80;;;7.10;;
56102;SDS011;41970;48.774;9.280;2022-07-22T11:41:34;6.97;;;6.47;;
56102;SDS011;41970;48.774;9.280;2022-07-22T11:44:00;8.20;;;7.50;;
56102;SDS011;41970;48.774;9.280;2022-07-22T11:46:27;7.97;;;7.37;;
56102;SDS011;41970;48.774;9.280;2022-07-22T11:48:53;8.20;;;7.57;;
56102;SDS011;41970;48.774;9.280;2022-07-22T11:51:22;7.60;;;7.10;;
56102;SDS011;41970;48.774;9.280;2022-07-22T11:53:56;7.03;;;6.53;;
56102;SDS011;41970;48.774;9.280;2022-07-22T11:56:23;7.90;;;7.10;;
56102;SDS011;41970;48.774;9.280;2022-07-22T11:58:50;8.67;;;7.87;;
56102;SDS011;41970;48.774;9.280;2022-07-22T12:01:21;10.13;;;7.73;;
56102;SDS011;41970;48.774;9.280;2022-07-22T12:03:53;7.00;;;6.40;;
56102;SDS011;41970;48.774;9.280;2022-07-22T12:06:21;7.73;;;7.23;;
56102;SDS011;41970;48.774;9.280;2022-07-22T12:08:50;6.93;;;6.33;;
56102;SDS011;41970;48.774;9.280;2022-07-22T12:11:18;7.67;;;7.07;;
56102;SDS011;41970;48.774;9.280;2022-07-22T12:13:48;7.90;;;6.50;;
56102;SDS011;41970;48.774;9.280;2022-07-22T12:18:55;7.07;;;6.57;;
56102;SDS011;41970;48.774;9.280;2022-07-22T12:21:36;7.20;;;6.60;;
56102;SDS011;41970;48.774;9.280;2022-07-22T12:24:16;7.07;;;6.43;;
56102;SDS011;41970;48.774;9.280;2022-07-22T12:26:50;7.17;;;6.57;;
56102;SDS011;41970;48.774;9.280;2022-07-22T12:29:25;6.63;;;6.07;;
56102;SDS011;41970;48.774;9.280;2022-07-22T12:32:08;6.73;;;6.20;;
56102;SDS011;41970;48.774;9.280;2022-07-22T12:42:19;6.87;;;6.17;;
56102;SDS011;41970;48.774;9.280;2022-07-22T12:45:02;6.67;;;6.17;;
56102;SDS011;41970;48.774;9.280;2022-07-22T12:47:38;6.10;;;5.60;;
56102;SDS011;41970;48.774;9.280;2022-07-22T12:50:25;5.03;;;4.70;;
56102;SDS011;41970;48.774;9.280;2022-07-22T12:52:52;6.73;;;5.90;;
56102;SDS011;41970;48.774;9.280;2022-07-22T12:55:20;5.97;;;5.47;;
56102;SDS011;41970;48.774;9.280;2022-07-22T12:57:46;15.70;;;14.60;;
56102;SDS011;41970;48.774;9.280;2022-07-22T13:00:22;7.97;;;7.10;;
56102;SDS011;41970;48.774;9.280;2022-07-22T13:02:49;6.37;;;5.87;;
56102;SDS011;41970;48.774;9.280;2022-07-22T13:05:16;6.17;;;5.67;;
56102;SDS011;41970;48.774;9.280;2022-07-22T13:07:42;6.10;;;5.60;;
56102;SDS011;41970;48.774;9.280;2022-07-22T13:10:09;6.37;;;5.87;;
56102;SDS011;41970;48.774;9.280;2022-07-22T13:12:36;6.57;;;6.07;;
56102;SDS011;41970;48.774;9.280;2022-07-22T13:15:03;6.90;;;6.40;;
56102;SDS011;41970;48.774;9.280;2022-07-22T13:17:29;6.90;;;6.40;;
56102;SDS011;41970;48.774;9.280;2022-07-22T13:19:55;6.63;;;6.03;;
56102;SDS011;41970;48.774;9.280;2022-07-22T13:22:21;7.80;;;5.90;;
56102;SDS011;41970;48.774;9.280;2022-07-22T13:24:47;6.30;;;5.80;;
56102;SDS011;41970;48.774;9.280;2022-07-22T13:27:13;5.80;;;5.40;;
56102;SDS011;41970;48.774;9.280;2022-07-22T13:29:40;5.70;;;5.30;;
56102;SDS011;41970;48.774;9.280;2022-07-22T13:32:06;5.93;;;5.43;;
56102;SDS011;41970;48.774;9.280;2022-07-22T13:34:32;5.07;;;4.40;;
56102;SDS011;41970;48.774;9.280;2022-07-22T13:36:58;5.40;;;4.90;;
56102;SDS011;41970;48.774;9.280;2022-07-22T13:39:25;5.50;;;5.10;;
56102;SDS011;41970;48.774;9.280;2022-07-22T13:41:52;5.70;;;5.27;;
56102;SDS011;41970;48.774;9.280;2022-07-22T13:44:18;5.80;;;5.30;;
56102;SDS011;41970;48.774;9.280;2022-07-22T13:46:44;6.20;;;5.70;;
56102;SDS011;41970;48.774;9.280;2022-07-22T13:49:11;5.13;;;4.63;;
56102;SDS011;41970;48.774;9.280;2022-07-22T13:51:38;5.50;;;5.10;;
56102;SDS011;41970;48.774;9.280;2022-07-22T13:54:04;5.70;;;5.20;;
56102;SDS011;41970;48.774;9.280;2022-07-22T13:56:33;5.70;;;5.20;;
56102;SDS011;41970;48.774;9.280;2022-07-22T13:59:00;5.83;;;5.33;;
56102;SDS011;41970;48.774;9.280;2022-07-22T14:01:27;5.57;;;5.17;;
56102;SDS011;41970;48.774;9.280;2022-07-22T14:03:53;6.60;;;6.00;;
56102;SDS011;41970;48.774;9.280;2022-07-22T14:06:19;6.17;;;5.60;;
56102;SDS011;41970;48.774;9.280;2022-07-22T14:08:45;6.23;;;5.73;;
56102;SDS011;41970;48.774;9.280;2022-07-22T14:11:11;9.13;;;6.27;;
56102;SDS011;41970;48.774;9.280;2022-07-22T14:13:37;11.77;;;10.83;;
56102;SDS011;41970;48.774;9.280;2022-07-22T14:16:03;7.47;;;6.77;;
56102;SDS011;41970;48.774;9.280;2022-07-22T14:18:48;7.47;;;6.37;;
56102;SDS011;41970;48.774;9.280;2022-07-22T14:21:13;7.80;;;7.10;;
56102;SDS011;41970;48.774;9.280;2022-07-22T14:23:39;7.50;;;7.00;;
56102;SDS011;41970;48.774;9.280;2022-07-22T14:26:05;6.50;;;6.00;;
56102;SDS011;41970;48.774;9.280;2022-07-22T14:28:31;7.10;;;6.50;;
56102;SDS011;41970;48.774;9.280;2022-07-22T14:31:02;6.60;;;6.10;;
56102;SDS011;41970;48.774;9.280;2022-07-22T14:33:28;7.27;;;6.67;;
56102;SDS011;41970;48.774;9.280;2022-07-22T14:35:54;6.73;;;6.23;;
56102;SDS011;41970;48.774;9.280;2022-07-22T14:38:20;8.63;;;5.90;;
56102;SDS011;41970;48.774;9.280;2022-07-22T14:40:46;5.43;;;5.03;;
56102;SDS011;41970;48.774;9.280;2022-07-22T14:43:12;5.87;;;5.47;;
56102;SDS011;41970;48.774;9.280;2022-07-22T14:45:38;6.37;;;5.80;;
56102;SDS011;41970;48.774;9.280;2022-07-22T14:48:04;5.93;;;5.50;;
56102;SDS011;41970;48.774;9.280;2022-07-22T14:50:30;6.87;;;6.17;;
56102;SDS011;41970;48.774;9.280;2022-07-22T14:52:56;6.90;;;6.30;;
56102;SDS011;41970;48.774;9.280;2022-07-22T14:55:22;6.00;;;5.53;;
56102;SDS011;41970;48.774;9.280;2022-07-22T14:57:48;6.03;;;5.60;;
56102;SDS011;41970;48.774;9.280;2022-07-22T15:00:14;6.00;;;5.50;;
56102;SDS011;41970;48.774;9.280;2022-07-22T15:02:40;6.20;;;5.80;;
56102;SDS011;41970;48.774;9.280;2022-07-22T15:05:06;6.17;;;5.77;;
56102;SDS011;41970;48.774;9.280;2022-07-22T15:07:32;6.07;;;5.67;;
56102;SDS011;41970;48.774;9.280;2022-07-22T15:09:58;7.10;;;6.50;;
56102;SDS011;41970;48.774;9.280;2022-07-22T15:12:24;6.53;;;5.93;;
56102;SDS011;41970;48.774;9.280;2022-07-22T15:14:50;5.90;;;5.50;;
56102;SDS011;41970;48.774;9.280;2022-07-22T15:17:17;5.83;;;5.00;;
56102;SDS011;41970;48.774;9.280;2022-07-22T15:19:42;6.30;;;5.80;;
56102;SDS011;41970;48.774;9.280;2022-07-22T15:22:09;5.70;;;5.20;;
56102;SDS011;41970;48.774;9.280;2022-07-22T15:24:35;6.60;;;6.10;;
56102;SDS011;41970;48.774;9.280;2022-07-22T15:27:01;6.90;;;6.30;;
56102;SDS011;41970;48.774;9.280;2022-07-22T15:29:27;6.60;;;6.10;;
56102;SDS011;41970;48.774;9.280;2022-07-22T15:31:54;7.33;;;6.13;;
56102;SDS011;41970;48.774;9.280;2022-07-22T15:34:20;6.07;;;5.67;;
56102;SDS011;41970;48.774;9.280;2022-07-22T15:36:46;6.60;;;6.10;;
56102;SDS011;41970;48.774;9.280;2022-07-22T15:39:12;6.27;;;5.83;;